Time;durP1;ratioP1;P1;durP2;ratioP2;P2;SDS_P1;SDS_P2;PMS_P1;PMS_P2;Temp;Humidity;BMP_temperature;BMP_pressure;BME280_temperature;BME280_humidity;BME280_pressure;Samples;Min_cycle;Max_cycle;Signal;HPM_P1;HPM_P2
2023/08/16 00:02:14;;;;;;;0.00;0.00;;;;;;;21.08;48.80;101452.88;7359460;19;20018;-57
2023/08/16 00:04:39;;;;;;;0.00;0.00;;;;;;;21.04;48.36;101454.00;7358595;19;20632;-56
2023/08/16 00:07:04;;;;;;;0.00;0.00;;;;;;;20.98;48.74;101464.00;7358507;19;19998;-57
2023/08/16 00:09:30;;;;;;;0.03;0.03;;;;;;;20.95;48.68;101466.81;7358892;19;21109;-54
2023/08/16 00:11:55;;;;;;;0.00;0.00;;;;;;;20.91;48.91;101470.56;7357692;19;20434;-56
2023/08/16 00:14:22;;;;;;;0.00;0.00;;;;;;;20.86;48.94;101467.31;7360200;19;20030;-56
2023/08/16 00:16:48;;;;;;;0.10;0.10;;;;;;;20.83;49.48;101467.47;7357723;19;20014;-54
2023/08/16 00:19:13;;;;;;;0.10;0.10;;;;;;;20.79;49.05;101471.25;7361090;19;20390;-56
2023/08/16 00:21:39;;;;;;;0.00;0.00;;;;;;;20.75;49.48;101469.69;7359958;19;20006;-56
2023/08/16 00:24:05;;;;;;;0.00;0.00;;;;;;;20.69;49.52;101468.22;7359855;19;20471;-57
2023/08/16 00:26:31;;;;;;;0.00;0.00;;;;;;;20.67;49.75;101471.88;7356592;19;19999;-55
2023/08/16 00:28:56;;;;;;;0.00;0.00;;;;;;;20.63;49.60;101459.69;7359923;19;20025;-57
2023/08/16 00:31:22;;;;;;;0.00;0.00;;;;;;;20.59;49.84;101474.09;7344142;19;20015;-56
2023/08/16 00:33:47;;;;;;;0.00;0.00;;;;;;;20.54;49.70;101471.66;7357778;19;20021;-56
2023/08/16 00:36:13;;;;;;;0.00;0.00;;;;;;;20.50;49.46;101474.56;7359065;19;20010;-57
2023/08/16 00:38:42;;;;;;;0.00;0.00;;;;;;;20.45;49.79;101475.63;7360711;19;20007;-56
2023/08/16 00:41:11;;;;;;;0.00;0.00;;;;;;;20.41;49.65;101476.69;7359186;19;20014;-56
2023/08/16 00:43:37;;;;;;;0.10;0.10;;;;;;;20.26;49.69;101458.06;7361081;19;20019;-53
2023/08/16 00:46:04;;;;;;;0.10;0.10;;;;;;;20.30;50.09;101476.41;7357218;19;20011;-55
2023/08/16 00:48:31;;;;;;;0.10;0.10;;;;;;;20.28;50.36;101483.59;7358520;19;20012;-56
2023/08/16 00:50:57;;;;;;;0.00;0.00;;;;;;;20.23;50.38;101482.97;7357912;19;20050;-56
2023/08/16 00:53:23;;;;;;;0.00;0.00;;;;;;;20.18;49.62;101479.69;7359759;19;20020;-55
2023/08/16 00:55:50;;;;;;;0.00;0.00;;;;;;;20.11;49.84;101479.13;7356074;19;20078;-56
2023/08/16 00:58:16;;;;;;;0.00;0.00;;;;;;;20.08;50.26;101486.38;7361573;19;20010;-57
2023/08/16 01:00:41;;;;;;;0.00;0.00;;;;;;;20.06;50.98;101485.59;7356473;19;20034;-55
2023/08/16 01:03:07;;;;;;;0.00;0.00;;;;;;;20.01;50.15;101482.31;7359551;19;20029;-57
2023/08/16 01:05:32;;;;;;;0.00;0.00;;;;;;;19.96;50.59;101486.03;7356053;19;20474;-56
2023/08/16 01:07:59;;;;;;;0.10;0.10;;;;;;;19.93;50.54;101488.00;7336790;19;20048;-54
2023/08/16 01:10:35;;;;;;;0.10;0.10;;;;;;;19.87;50.42;101486.50;7355328;19;20755;-56
2023/08/16 01:13:13;;;;;;;0.05;0.05;;;;;;;19.85;50.09;101492.81;7359024;19;20481;-56
2023/08/16 01:15:44;;;;;;;0.08;0.08;;;;;;;19.80;51.09;101495.69;7359790;19;20037;-56
2023/08/16 01:18:11;;;;;;;0.00;0.00;;;;;;;19.76;51.39;101502.06;7355148;19;20007;-56
2023/08/16 01:20:38;;;;;;;0.08;0.08;;;;;;;19.58;51.64;101468.47;7359373;19;20014;-56
2023/08/16 01:23:06;;;;;;;0.00;0.00;;;;;;;19.69;51.52;101500.66;7359171;19;20018;-56
2023/08/16 01:26:02;;;;;;;0.00;0.00;;;;;;;19.67;50.48;101505.19;7360062;19;20029;-56
2023/08/16 01:28:29;;;;;;;0.00;0.00;;;;;;;19.60;51.97;101498.44;7254576;19;2004408;-55
2023/08/16 01:31:01;;;;;;;0.08;0.08;;;;;;;19.58;51.52;101505.56;7356244;19;20657;-56
2023/08/16 01:33:27;;;;;;;0.00;0.00;;;;;;;19.54;51.94;101504.00;7359649;19;20018;-57
2023/08/16 01:35:52;;;;;;;0.00;0.00;;;;;;;19.51;52.30;101510.28;7359358;19;20038;-55
2023/08/16 01:38:17;;;;;;;0.10;0.10;;;;;;;19.48;52.23;101514.88;7354465;19;20013;-54
2023/08/16 01:41:15;;;;;;;0.00;0.00;;;;;;;19.45;50.51;101508.78;7359380;19;20017;-56
2023/08/16 01:43:44;;;;;;;0.00;0.00;;;;;;;19.41;52.27;101514.28;7256473;19;2004513;-56
2023/08/16 01:46:10;;;;;;;0.00;0.00;;;;;;;19.37;52.00;101505.66;7357934;19;20023;-56
2023/08/16 01:48:38;;;;;;;0.00;0.00;;;;;;;19.19;52.34;101485.31;7360182;19;20007;-56
2023/08/16 01:51:04;;;;;;;0.00;0.00;;;;;;;19.31;52.27;101508.59;7354982;19;20090;-57
2023/08/16 01:53:30;;;;;;;0.10;0.10;;;;;;;19.24;52.38;101500.97;7360316;19;20011;-56
2023/08/16 01:55:58;;;;;;;0.00;0.00;;;;;;;19.13;52.48;101493.53;7326923;19;20437;-56
2023/08/16 08:24:15;;;;;;;0.10;0.10;;;;;;;20.20;54.69;101631.63;7367319;19;20055;-57
2023/08/16 08:26:41;;;;;;;0.00;0.00;;;;;;;20.24;55.53;101629.69;7355098;19;20465;-58
2023/08/16 08:29:06;;;;;;;0.10;0.10;;;;;;;20.33;55.95;101642.53;7353974;19;20038;-58
2023/08/16 08:31:32;;;;;;;0.00;0.00;;;;;;;20.41;55.45;101637.69;7354486;19;20017;-56
2023/08/16 08:33:57;;;;;;;0.00;0.00;;;;;;;20.51;56.37;101640.78;7354602;19;20105;-57
2023/08/16 08:36:22;;;;;;;0.00;0.00;;;;;;;20.58;56.27;101639.53;7353864;19;20006;-57
2023/08/16 08:38:49;;;;;;;0.10;0.10;;;;;;;20.67;55.71;101636.44;7357687;19;20029;-58
2023/08/16 08:41:14;;;;;;;0.10;0.10;;;;;;;20.75;56.09;101634.25;7358571;19;20006;-57
2023/08/16 08:43:40;;;;;;;0.00;0.00;;;;;;;20.83;55.97;101632.06;7356925;19;20011;-57
2023/08/16 08:46:06;;;;;;;0.03;0.03;;;;;;;20.75;56.27;101610.38;7356815;19;21838;-57
2023/08/16 08:48:32;;;;;;;0.00;0.00;;;;;;;21.01;56.44;101640.03;7358632;19;20086;-58
2023/08/16 08:51:00;;;;;;;0.05;0.05;;;;;;;21.09;56.45;101637.84;7357929;19;20010;-57
2023/08/16 08:53:26;;;;;;;0.10;0.10;;;;;;;21.13;55.65;101639.38;7360525;19;20038;-57
2023/08/16 08:55:54;;;;;;;0.05;0.05;;;;;;;21.24;55.86;101642.38;7357411;19;20091;-56
2023/08/16 08:58:20;;;;;;;0.10;0.10;;;;;;;21.32;55.70;101644.63;7353239;19;20541;-58
2023/08/16 09:00:48;;;;;;;0.10;0.10;;;;;;;21.38;55.59;101645.16;7349448;19;20110;-57
2023/08/16 09:03:17;;;;;;;0.10;0.10;;;;;;;21.47;55.56;101647.34;7355799;19;20010;-56
2023/08/16 09:05:44;;;;;;;0.00;0.00;;;;;;;21.42;55.84;101624.63;7357796;19;20050;-57
2023/08/16 09:08:13;;;;;;;0.10;0.10;;;;;;;21.56;55.64;101642.50;7358437;19;20053;-57
2023/08/16 09:10:39;;;;;;;0.10;0.10;;;;;;;21.68;55.31;101649.78;7359629;19;20018;-58
2023/08/16 09:13:08;;;;;;;0.10;0.10;;;;;;;21.74;55.70;101652.09;7357068;19;20026;-57
2023/08/16 09:15:33;;;;;;;0.00;0.00;;;;;;;21.82;55.38;101652.56;7361954;19;20034;-57
2023/08/16 09:18:13;;;;;;;0.00;0.00;;;;;;;21.98;54.90;101653.44;7357608;19;20011;-57
2023/08/16 09:20:39;;;;;;;0.10;0.10;;;;;;;22.00;55.36;101654.22;7360525;19;20046;-58
2023/08/16 09:23:05;;;;;;;0.00;0.00;;;;;;;22.09;55.32;101655.47;7360556;19;20014;-58
2023/08/16 09:25:30;;;;;;;0.00;0.00;;;;;;;22.18;54.96;101646.16;7359042;19;20641;-57
2023/08/16 09:27:56;;;;;;;0.08;0.08;;;;;;;22.25;55.30;101647.53;7356425;19;20879;-58
2023/08/16 09:30:25;;;;;;;0.10;0.10;;;;;;;22.38;55.00;101647.72;7357429;19;20015;-58
2023/08/16 09:32:52;;;;;;;0.00;0.00;;;;;;;22.37;54.87;101636.22;7348720;19;20014;-57
2023/08/16 09:35:17;;;;;;;0.10;0.10;;;;;;;22.49;54.53;101646.13;7356036;19;20027;-58
2023/08/16 09:37:44;;;;;;;0.00;0.00;;;;;;;22.58;54.63;101649.22;7357466;19;20010;-58
2023/08/16 09:40:12;;;;;;;0.00;0.00;;;;;;;22.68;54.47;101653.06;7349693;19;20023;-58
2023/08/16 09:42:37;;;;;;;0.00;0.00;;;;;;;22.69;54.60;101654.78;7356877;19;20015;-57
2023/08/16 09:45:03;;;;;;;0.10;0.10;;;;;;;22.73;54.53;101651.00;7355461;19;20018;-58
2023/08/16 09:47:30;;;;;;;0.10;0.10;;;;;;;22.77;54.36;101655.19;7355378;19;20026;-57
2023/08/16 09:49:57;;;;;;;0.10;0.10;;;;;;;22.71;53.32;101632.44;7356231;19;20034;-58
2023/08/16 09:52:22;;;;;;;0.10;0.10;;;;;;;22.84;53.29;101651.22;7357302;19;20010;-58
2023/08/16 09:54:49;;;;;;;0.10;0.10;;;;;;;22.88;53.52;101650.13;7351043;19;20492;-58
2023/08/16 09:57:16;;;;;;;0.03;0.03;;;;;;;22.89;53.71;101654.50;7355129;19;20010;-58
2023/08/16 09:59:42;;;;;;;0.00;0.00;;;;;;;23.01;53.28;101664.44;7357538;19;20654;-58
2023/08/16 10:02:11;;;;;;;0.10;0.10;;;;;;;23.12;52.83;101671.78;7348548;19;20010;-58
2023/08/16 10:04:38;;;;;;;0.00;0.00;;;;;;;23.12;53.44;101671.78;7355893;19;20017;-57
2023/08/16 10:07:06;;;;;;;0.00;0.00;;;;;;;23.21;52.82;101665.88;7350200;19;20030;-57
2023/08/16 10:09:33;;;;;;;0.10;0.10;;;;;;;23.25;53.12;101666.56;7353809;19;20014;-57
2023/08/16 10:12:03;;;;;;;0.10;0.10;;;;;;;23.35;52.59;101666.88;7355901;19;20010;-58
2023/08/16 10:14:30;;;;;;;0.10;0.10;;;;;;;23.39;51.42;101663.91;7355108;19;20007;-57
2023/08/16 10:17:01;;;;;;;0.10;0.10;;;;;;;23.50;50.47;101658.78;7350156;19;20750;-55
2023/08/16 10:19:32;;;;;;;0.05;0.05;;;;;;;23.50;50.82;101666.78;7357651;19;20018;-57
2023/08/16 10:21:59;;;;;;;0.10;0.10;;;;;;;23.49;50.77;101667.75;7351872;19;20081;-57
2023/08/16 10:24:29;;;;;;;0.10;0.10;;;;;;;23.52;50.75;101667.56;7356193;19;20060;-56
2023/08/16 10:26:57;;;;;;;0.10;0.10;;;;;;;23.59;50.79;101660.03;7354798;19;20034;-57
2023/08/16 10:29:23;;;;;;;0.10;0.10;;;;;;;23.65;50.64;101658.81;7357809;19;20029;-57
2023/08/16 10:31:51;;;;;;;0.10;0.10;;;;;;;23.73;49.86;101662.72;7354549;19;20033;-57
2023/08/16 10:34:20;;;;;;;0.10;0.10;;;;;;;23.85;49.38;101657.56;7352745;19;20017;-57
2023/08/16 10:36:46;;;;;;;0.00;0.00;;;;;;;23.87;49.48;101664.50;7353526;19;20033;-57
2023/08/16 10:39:22;;;;;;;0.10;0.10;;;;;;;23.98;49.97;101672.72;7357944;19;20619;-58
2023/08/16 10:41:50;;;;;;;0.10;0.10;;;;;;;23.95;49.90;101670.22;7354026;19;20972;-58
2023/08/16 10:44:23;;;;;;;0.10;0.10;;;;;;;24.07;49.73;101666.75;7357327;19;20023;-57
2023/08/16 10:46:50;;;;;;;0.00;0.00;;;;;;;24.07;50.28;101666.75;7354733;19;20010;-58
2023/08/16 10:49:16;;;;;;;0.10;0.10;;;;;;;24.16;49.15;101664.47;7355337;19;20528;-57
2023/08/16 10:51:45;;;;;;;0.10;0.10;;;;;;;24.25;49.18;101672.75;7356124;19;20069;-56
2023/08/16 10:54:11;;;;;;;0.10;0.10;;;;;;;24.32;49.66;101671.38;7354503;19;20018;-58
2023/08/16 10:56:44;;;;;;;0.10;0.10;;;;;;;24.43;48.31;101668.06;7353269;19;20010;-58
2023/08/16 10:59:14;;;;;;;0.03;0.03;;;;;;;24.49;48.46;101662.31;7352732;19;20016;-58
2023/08/16 11:01:53;;;;;;;0.00;0.00;;;;;;;24.57;49.37;101649.28;7348569;19;20025;-58
2023/08/16 11:04:19;;;;;;;0.10;0.10;;;;;;;24.68;49.39;101658.41;7352050;19;20102;-57
2023/08/16 11:06:46;;;;;;;0.10;0.10;;;;;;;24.81;49.56;101660.16;7351985;19;20052;-57
2023/08/16 11:09:12;;;;;;;0.00;0.00;;;;;;;25.02;49.68;101655.16;7354436;19;20014;-58
2023/08/16 11:11:46;;;;;;;0.00;0.00;;;;;;;25.39;50.07;101667.84;7356559;19;21035;-56
2023/08/16 11:14:12;;;;;;;0.00;0.00;;;;;;;25.63;47.64;101671.47;7353279;19;20014;-58
2023/08/16 11:16:38;;;;;;;0.10;0.10;;;;;;;25.93;48.05;101668.47;7352024;19;20105;-58
2023/08/16 11:19:04;;;;;;;0.00;0.00;;;;;;;26.18;47.83;101672.03;7355336;19;20016;-58
2023/08/16 11:21:32;;;;;;;0.03;0.03;;;;;;;26.47;46.99;101667.25;7353198;19;20044;-56
2023/08/16 11:23:58;;;;;;;0.00;0.00;;;;;;;26.67;46.69;101666.63;7355448;19;20014;-57
2023/08/16 11:26:23;;;;;;;0.10;0.10;;;;;;;26.87;46.29;101665.97;7354576;19;20011;-57
2023/08/16 11:28:49;;;;;;;0.00;0.00;;;;;;;26.97;45.89;101652.72;7355792;19;20663;-57
2023/08/16 11:31:14;;;;;;;0.10;0.10;;;;;;;27.23;46.61;101665.97;7353656;19;20014;-58
2023/08/16 11:33:41;;;;;;;0.00;0.00;;;;;;;27.39;45.85;101663.78;7355940;19;20022;-58
2023/08/16 11:36:12;;;;;;;0.00;0.00;;;;;;;27.54;46.06;101662.56;7354278;19;20014;-58
2023/08/16 11:38:41;;;;;;;0.00;0.00;;;;;;;27.67;45.57;101657.06;7354882;19;20010;-58
2023/08/16 11:41:07;;;;;;;0.08;0.08;;;;;;;27.80;45.27;101660.53;7351201;19;20029;-57
2023/08/16 11:43:34;;;;;;;0.10;0.10;;;;;;;27.98;43.18;101657.31;7353303;19;20011;-58
2023/08/16 11:46:01;;;;;;;0.00;0.00;;;;;;;28.09;43.75;101652.81;7352760;19;20018;-58
2023/08/16 11:48:29;;;;;;;;;;;;;;;28.34;45.08;101649.00;7357066;19;21420;-58
2023/08/16 11:50:56;;;;;;;0.00;0.00;;;;;;;28.26;44.42;101650.56;7345731;19;19938;-58
2023/08/16 11:53:22;;;;;;;0.03;0.03;;;;;;;28.29;44.21;101650.31;7355828;19;20039;-56
2023/08/16 11:56:00;;;;;;;0.10;0.10;;;;;;;28.52;44.46;101657.34;7351251;19;20010;-58
2023/08/16 11:58:27;;;;;;;0.05;0.05;;;;;;;28.57;44.00;101654.28;7355208;19;20051;-58
2023/08/16 12:01:00;;;;;;;0.00;0.00;;;;;;;28.65;44.34;101641.06;7349435;19;20018;-57
2023/08/16 12:03:25;;;;;;;0.00;0.00;;;;;;;28.93;43.76;101656.53;7354046;19;20018;-58
2023/08/16 12:05:51;;;;;;;0.00;0.00;;;;;;;29.18;43.34;101660.69;7352930;19;20021;-58
2023/08/16 12:08:20;;;;;;;0.00;0.00;;;;;;;29.50;41.65;101662.41;7352276;19;20903;-58
2023/08/16 12:10:56;;;;;;;0.00;0.00;;;;;;;29.72;42.56;101670.34;7353461;19;20010;-58
2023/08/16 12:13:23;;;;;;;0.03;0.03;;;;;;;29.78;40.45;101673.47;7351930;19;20086;-58
2023/08/16 12:15:49;;;;;;;0.00;0.00;;;;;;;29.89;40.77;101670.69;7347029;19;20090;-56
2023/08/16 12:18:17;;;;;;;0.03;0.03;;;;;;;29.94;40.81;101663.03;7350373;19;20010;-57
2023/08/16 12:20:49;;;;;;;0.05;0.05;;;;;;;30.09;40.62;101666.19;7351806;19;20006;-58
2023/08/16 12:23:15;;;;;;;0.00;0.00;;;;;;;30.22;41.05;101667.69;7350993;19;20015;-58
2023/08/16 12:25:40;;;;;;;0.00;0.00;;;;;;;30.39;41.23;101663.44;7354213;19;20039;-58
2023/08/16 12:28:05;;;;;;;0.00;0.00;;;;;;;30.62;41.01;101664.03;7353275;19;20050;-58
2023/08/16 12:30:31;;;;;;;0.00;0.00;;;;;;;30.92;40.49;101675.66;7359712;19;20832;-56
2023/08/16 12:32:56;;;;;;;0.00;0.00;;;;;;;31.16;39.55;101665.25;7356812;19;20002;-58
2023/08/16 12:35:22;;;;;;;0.00;0.00;;;;;;;31.41;38.64;101673.75;7360864;19;20102;-58
2023/08/16 12:37:47;;;;;;;0.10;0.10;;;;;;;31.61;37.47;101679.94;7361708;19;20054;-58
2023/08/16 12:40:13;;;;;;;0.10;0.10;;;;;;;31.73;37.82;101676.03;7354297;19;20045;-58
2023/08/16 12:42:39;;;;;;;0.10;0.10;;;;;;;31.82;38.05;101674.34;7359110;19;20018;-58
2023/08/16 12:45:05;;;;;;;0.07;0.07;;;;;;;31.89;37.61;101675.44;7362498;19;20014;-58
2023/08/16 12:47:30;;;;;;;0.10;0.10;;;;;;;31.83;38.14;101654.41;7359859;19;20474;-58
2023/08/16 12:49:56;;;;;;;0.03;0.03;;;;;;;31.90;37.23;101655.53;7351438;19;20077;-58
2023/08/16 12:52:22;;;;;;;0.10;0.10;;;;;;;32.10;37.75;101672.47;7336619;19;20017;-57
2023/08/16 12:54:49;;;;;;;0.00;0.00;;;;;;;32.15;36.49;101671.03;7354700;19;20106;-58
2023/08/16 12:57:15;;;;;;;0.10;0.10;;;;;;;32.24;37.13;101680.06;7352634;19;20493;-58
2023/08/16 12:59:41;;;;;;;0.10;0.10;;;;;;;32.41;37.26;101676.56;7355486;19;20070;-58
2023/08/16 13:02:06;;;;;;;0.10;0.10;;;;;;;32.68;36.74;101674.78;7355901;19;20429;-56
2023/08/16 13:04:32;;;;;;;0.00;0.00;;;;;;;32.98;34.88;101673.53;7359789;19;20014;-59
2023/08/16 13:06:59;;;;;;;0.07;0.07;;;;;;;33.21;36.46;101665.75;7359732;19;20014;-58
2023/08/16 13:09:25;;;;;;;0.00;0.00;;;;;;;33.46;34.82;101672.19;7356610;19;20106;-58
2023/08/16 13:11:50;;;;;;;0.00;0.00;;;;;;;33.70;34.52;101657.91;7358576;19;20026;-58
2023/08/16 13:14:16;;;;;;;0.10;0.10;;;;;;;33.96;33.95;101668.69;7357318;19;20002;-58
2023/08/16 13:16:42;;;;;;;0.10;0.10;;;;;;;34.05;34.56;101657.72;7357839;19;20014;-57
2023/08/16 13:19:09;;;;;;;0.10;0.10;;;;;;;34.25;34.08;101663.69;7357559;19;20010;-57
2023/08/16 13:21:35;;;;;;;0.10;0.10;;;;;;;34.38;33.83;101656.97;7359250;19;20022;-58
2023/08/16 13:24:11;;;;;;;0.00;0.00;;;;;;;34.60;35.06;101656.31;7357721;19;20014;-56
2023/08/16 13:26:40;;;;;;;;;;;;;;;34.81;36.08;101658.50;7358014;19;20023;-58
2023/08/16 13:29:09;;;;;;;0.10;0.10;;;;;;;34.83;34.25;101654.63;7354543;19;20334;-58
2023/08/16 13:31:35;;;;;;;0.10;0.10;;;;;;;34.82;32.00;101650.22;7358111;19;20057;-58
2023/08/16 13:34:01;;;;;;;0.10;0.10;;;;;;;34.79;31.89;101647.84;7354340;19;20801;-56
2023/08/16 13:36:27;;;;;;;0.10;0.10;;;;;;;34.64;32.79;101633.25;7359182;19;20010;-58
2023/08/16 13:38:52;;;;;;;0.10;0.10;;;;;;;34.63;33.95;101656.00;7358998;19;20458;-57
2023/08/16 13:41:18;;;;;;;0.00;0.00;;;;;;;34.44;33.96;101612.88;7356192;19;20117;-57
2023/08/16 13:43:43;;;;;;;0.10;0.10;;;;;;;34.71;32.92;101641.56;7359728;19;20085;-58
2023/08/16 13:46:09;;;;;;;0.10;0.10;;;;;;;34.77;33.41;101641.72;7357532;19;20027;-57
2023/08/16 13:48:34;;;;;;;0.10;0.10;;;;;;;34.87;32.59;101646.13;7359159;19;20010;-58
2023/08/16 13:51:00;;;;;;;0.10;0.10;;;;;;;34.99;32.29;101647.53;7358949;19;20007;-58
2023/08/16 13:53:25;;;;;;;0.10;0.10;;;;;;;35.10;33.35;101647.16;7357043;19;20014;-58
2023/08/16 13:55:51;;;;;;;0.10;0.10;;;;;;;35.23;32.96;101642.03;7358036;19;20082;-58
2023/08/16 13:58:16;;;;;;;0.07;0.07;;;;;;;35.38;32.55;101644.84;7357182;19;20017;-58
2023/08/16 14:00:41;;;;;;;0.10;0.10;;;;;;;35.50;32.82;101648.09;7354873;19;20030;-57
2023/08/16 14:03:07;;;;;;;0.10;0.10;;;;;;;35.58;31.81;101656.19;7358008;19;20493;-58
2023/08/16 14:05:32;;;;;;;0.10;0.10;;;;;;;35.68;31.59;101653.28;7358822;19;20068;-58
2023/08/16 14:07:58;;;;;;;0.10;0.10;;;;;;;35.72;32.02;101655.47;7358068;19;20335;-59
2023/08/16 14:10:23;;;;;;;0.10;0.10;;;;;;;35.75;30.32;101657.84;7355718;19;20091;-58
2023/08/16 14:12:48;;;;;;;0.10;0.10;;;;;;;35.74;29.70;101658.03;7356232;19;20025;-57
2023/08/16 14:15:14;;;;;;;0.10;0.10;;;;;;;35.65;31.77;101646.34;7360873;19;20022;-57
2023/08/16 14:17:39;;;;;;;0.10;0.10;;;;;;;35.51;31.10;101633.47;7356285;19;20019;-58
2023/08/16 14:20:08;;;;;;;0.10;0.10;;;;;;;35.64;32.20;101654.66;7352933;19;20006;-57
2023/08/16 14:22:34;;;;;;;0.10;0.10;;;;;;;35.74;32.23;101642.56;7358326;19;20020;-58
2023/08/16 14:24:59;;;;;;;0.10;0.10;;;;;;;35.98;31.53;101654.34;7351992;19;20035;-58
2023/08/16 14:27:24;;;;;;;0.10;0.10;;;;;;;36.19;30.61;101643.66;7355653;19;20014;-59
2023/08/16 14:29:50;;;;;;;0.17;0.17;;;;;;;36.38;30.81;101642.34;7350511;19;20022;-58
2023/08/16 14:32:16;;;;;;;0.10;0.10;;;;;;;36.49;31.11;101635.66;7341543;19;20007;-58
2023/08/16 14:34:41;;;;;;;0.10;0.10;;;;;;;36.73;28.58;101640.06;7353703;19;20023;-58
2023/08/16 14:37:07;;;;;;;0.10;0.10;;;;;;;36.88;30.03;101647.22;7337354;19;20041;-58
2023/08/16 14:39:33;;;;;;;0.10;0.10;;;;;;;37.05;30.18;101639.75;7355838;19;20517;-58
2023/08/16 14:41:58;;;;;;;0.10;0.10;;;;;;;37.26;29.83;101636.31;7358644;19;20022;-56
2023/08/16 14:44:24;;;;;;;0.10;0.10;;;;;;;37.50;27.48;101647.97;7354187;19;20018;-58
2023/08/16 14:46:49;;;;;;;0.10;0.10;;;;;;;37.57;28.71;101638.88;7354223;19;20018;-58
2023/08/16 14:49:14;;;;;;;0.10;0.10;;;;;;;37.49;28.80;101646.28;7354567;19;20469;-57
2023/08/16 14:51:40;;;;;;;0.10;0.10;;;;;;;37.34;28.39;101641.66;7358178;19;20011;-58
2023/08/16 14:54:05;;;;;;;0.13;0.13;;;;;;;37.19;26.21;101640.81;7354469;19;20002;-57
2023/08/16 14:56:31;;;;;;;0.20;0.20;;;;;;;36.93;27.09;101651.31;7355710;19;20139;-55
2023/08/16 14:58:56;;;;;;;0.10;0.10;;;;;;;36.54;28.40;101646.84;7353638;19;20006;-58
2023/08/16 15:01:22;;;;;;;0.10;0.10;;;;;;;36.17;29.40;101645.75;7357316;19;22062;-56
2023/08/16 15:03:47;;;;;;;0.10;0.10;;;;;;;35.82;29.78;101626.19;7357589;19;20895;-58
2023/08/16 15:06:12;;;;;;;0.10;0.10;;;;;;;35.81;30.12;101643.53;7358023;19;20018;-58
2023/08/16 15:08:38;;;;;;;0.13;0.13;;;;;;;35.71;28.93;101610.28;7354047;19;20500;-58
2023/08/16 15:11:21;;;;;;;0.10;0.10;;;;;;;36.12;31.22;101643.56;7355581;19;20010;-56
2023/08/16 15:13:47;;;;;;;0.15;0.15;;;;;;;36.11;30.00;101630.16;7354238;19;20425;-57
2023/08/16 15:16:13;;;;;;;0.17;0.17;;;;;;;36.37;30.17;101635.22;7355807;19;20017;-58
2023/08/16 15:18:38;;;;;;;0.10;0.10;;;;;;;36.50;28.98;101642.78;7356819;19;20018;-58
2023/08/16 15:21:05;;;;;;;0.17;0.17;;;;;;;36.59;29.24;101628.09;7355299;19;20662;-58
2023/08/16 15:23:35;;;;;;;0.15;0.15;;;;;;;36.65;28.61;101627.38;7355170;19;20029;-58
2023/08/16 15:26:01;;;;;;;0.10;0.10;;;;;;;36.64;27.87;101631.97;7352734;19;20033;-58
2023/08/16 15:28:26;;;;;;;0.10;0.10;;;;;;;36.57;28.17;101638.34;7358123;19;20018;-58
2023/08/16 15:30:56;;;;;;;0.10;0.10;;;;;;;36.44;28.99;101640.81;7352692;19;20830;-58
2023/08/16 15:33:22;;;;;;;0.10;0.10;;;;;;;36.28;29.05;101637.16;7353492;19;20753;-57
2023/08/16 15:35:47;;;;;;;0.10;0.10;;;;;;;36.12;28.83;101634.56;7357152;19;20015;-58
2023/08/16 15:38:35;;;;;;;0.10;0.10;;;;;;;35.99;29.91;101632.44;7353693;19;20062;-58
2023/08/16 15:41:00;;;;;;;0.10;0.10;;;;;;;35.71;29.13;101637.47;7341400;19;20122;-58
2023/08/16 15:43:26;;;;;;;0.10;0.10;;;;;;;35.49;29.23;101632.81;7353129;19;20712;-57
2023/08/16 15:45:51;;;;;;;0.10;0.10;;;;;;;35.26;29.56;101636.25;7351237;19;20021;-58
2023/08/16 15:48:17;;;;;;;0.10;0.10;;;;;;;35.03;30.03;101635.31;7355582;19;20011;-58
2023/08/16 15:50:42;;;;;;;0.00;0.00;;;;;;;34.73;29.94;101625.97;7353289;19;20035;-56
2023/08/16 15:53:07;;;;;;;0.00;0.00;;;;;;;34.50;30.26;101628.50;7354667;19;20011;-57
2023/08/16 15:55:33;;;;;;;0.10;0.10;;;;;;;34.27;30.44;101634.56;7351314;19;20078;-58
2023/08/16 15:57:58;;;;;;;0.00;0.00;;;;;;;34.05;31.03;101640.59;7353889;19;20010;-57
2023/08/16 16:00:23;;;;;;;0.00;0.00;;;;;;;33.81;30.73;101636.81;7358644;19;20023;-58
2023/08/16 16:02:49;;;;;;;0.00;0.00;;;;;;;33.57;31.35;101631.28;7362586;19;20034;-57
2023/08/16 16:05:14;;;;;;;0.00;0.00;;;;;;;33.37;31.64;101632.50;7362443;19;20094;-58
2023/08/16 16:07:39;;;;;;;0.10;0.10;;;;;;;33.16;31.89;101632.91;7358449;19;20015;-57
2023/08/16 16:10:05;;;;;;;0.00;0.00;;;;;;;32.98;32.33;101624.81;7359642;19;20018;-57
2023/08/16 16:12:31;;;;;;;0.00;0.00;;;;;;;32.77;31.94;101626.00;7358037;19;20043;-58
2023/08/16 16:14:56;;;;;;;0.00;0.00;;;;;;;32.57;32.14;101621.78;7362448;19;20017;-58
2023/08/16 16:17:27;;;;;;;0.00;0.00;;;;;;;32.42;32.78;101628.75;7359499;19;20010;-58
2023/08/16 16:19:53;;;;;;;0.00;0.00;;;;;;;32.20;33.13;101632.72;7360886;19;20458;-58
2023/08/16 16:22:18;;;;;;;0.00;0.00;;;;;;;32.02;33.42;101624.59;7357277;19;20007;-58
2023/08/16 16:24:44;;;;;;;0.00;0.00;;;;;;;31.86;33.67;101621.72;7356895;19;20094;-58
2023/08/16 16:27:10;;;;;;;0.00;0.00;;;;;;;31.70;33.67;101623.19;7362698;19;20022;-58
2023/08/16 16:29:35;;;;;;;0.00;0.00;;;;;;;31.56;34.29;101622.84;7359114;19;20034;-58
2023/08/16 16:32:00;;;;;;;0.00;0.00;;;;;;;31.43;34.05;101615.09;7361611;19;20011;-57
2023/08/16 16:34:26;;;;;;;0.00;0.00;;;;;;;31.30;34.28;101618.09;7359752;19;20021;-58
2023/08/16 16:36:51;;;;;;;0.00;0.00;;;;;;;31.15;34.61;101623.09;7361481;19;20010;-57
2023/08/16 16:39:16;;;;;;;0.00;0.00;;;;;;;31.00;35.27;101608.38;7356724;19;20027;-59
2023/08/16 16:41:42;;;;;;;0.00;0.00;;;;;;;30.88;34.98;101614.94;7353578;19;20702;-56
2023/08/16 16:44:07;;;;;;;0.00;0.00;;;;;;;30.78;35.13;101608.72;7354512;19;20010;-58
2023/08/16 16:46:33;;;;;;;0.00;0.00;;;;;;;30.67;35.15;101607.84;7360476;19;20767;-58
2023/08/16 16:48:58;;;;;;;0.10;0.10;;;;;;;30.58;35.83;101607.84;7358029;19;20014;-58
2023/08/16 16:51:24;;;;;;;0.00;0.00;;;;;;;30.46;35.75;101599.03;7359814;19;20010;-57
2023/08/16 16:53:49;;;;;;;0.00;0.00;;;;;;;30.40;36.07;101610.38;7357202;19;20617;-57
2023/08/16 16:56:15;;;;;;;0.00;0.00;;;;;;;30.33;35.88;101610.13;7358857;19;20018;-58
2023/08/16 16:58:40;;;;;;;0.00;0.00;;;;;;;30.26;35.89;101608.97;7359331;19;20121;-57
2023/08/16 17:01:06;;;;;;;0.00;0.00;;;;;;;30.19;35.70;101603.28;7358122;19;20039;-58
2023/08/16 17:03:31;;;;;;;0.00;0.00;;;;;;;30.11;36.16;101600.44;7360747;19;24095;-57
2023/08/16 17:06:01;;;;;;;0.00;0.00;;;;;;;29.99;35.68;101588.06;7359614;19;20015;-57
2023/08/16 17:08:26;;;;;;;0.00;0.00;;;;;;;29.92;36.40;101612.03;7354761;19;20019;-57
2023/08/16 17:10:51;;;;;;;0.00;0.00;;;;;;;29.83;36.52;101603.91;7358189;19;20041;-58
2023/08/16 17:13:17;;;;;;;0.00;0.00;;;;;;;29.67;36.52;101602.59;7356298;19;20014;-58
2023/08/16 17:15:42;;;;;;;0.00;0.00;;;;;;;29.65;36.61;101609.97;7359304;19;20015;-57
2023/08/16 17:18:08;;;;;;;0.00;0.00;;;;;;;29.57;36.52;101607.09;7356793;19;20051;-58
2023/08/16 17:20:33;;;;;;;0.00;0.00;;;;;;;29.48;36.61;101607.88;7356320;19;20006;-57
2023/08/16 17:22:58;;;;;;;0.00;0.00;;;;;;;29.40;36.77;101605.00;7352596;19;20022;-58
2023/08/16 17:25:24;;;;;;;0.00;0.00;;;;;;;29.33;36.58;101607.38;7354230;19;20010;-57
2023/08/16 17:27:49;;;;;;;0.00;0.00;;;;;;;29.23;36.93;101598.41;7358086;19;20082;-58
2023/08/16 17:30:15;;;;;;;0.00;0.00;;;;;;;29.19;36.86;101605.91;7354061;19;20006;-56
2023/08/16 17:32:40;;;;;;;0.00;0.00;;;;;;;29.12;37.44;101607.44;7359487;19;20634;-58
2023/08/16 17:35:09;;;;;;;0.10;0.10;;;;;;;28.84;37.41;101567.72;7355110;19;20358;-57
2023/08/16 17:37:34;;;;;;;0.10;0.10;;;;;;;28.97;37.29;101614.13;7360309;19;20038;-58
2023/08/16 17:40:00;;;;;;;0.00;0.00;;;;;;;28.90;37.69;101612.94;7356373;19;20006;-58
2023/08/16 17:42:25;;;;;;;0.00;0.00;;;;;;;28.82;37.22;101608.19;7358253;19;20097;-58
2023/08/16 17:44:50;;;;;;;0.00;0.00;;;;;;;28.72;37.23;101604.59;7352111;19;20896;-58
2023/08/16 17:47:16;;;;;;;0.00;0.00;;;;;;;28.60;37.08;101601.13;7353010;19;20026;-58
2023/08/16 17:49:41;;;;;;;0.00;0.00;;;;;;;28.42;36.98;101602.66;7354613;19;20013;-58
2023/08/16 17:52:06;;;;;;;0.00;0.00;;;;;;;28.30;36.91;101603.66;7350426;19;20011;-58